sensor_id;sensor_type;location;lat;lon;timestamp;P1;durP1;ratioP1;P2;durP2;ratioP2
70122;SDS011;57489;37.404;24.920;2023-08-17T00:02:12;13.57;;;8.13;;
70122;SDS011;57489;37.404;24.920;2023-08-17T00:07:13;13.65;;;7.22;;
70122;SDS011;57489;37.404;24.920;2023-08-17T00:12:13;15.00;;;8.60;;
70122;SDS011;57489;37.404;24.920;2023-08-17T00:17:14;12.30;;;8.10;;
70122;SDS011;57489;37.404;24.920;2023-08-17T00:22:14;14.60;;;8.30;;
70122;SDS011;57489;37.404;24.920;2023-08-17T00:27:14;11.20;;;8.23;;
70122;SDS011;57489;37.404;24.920;2023-08-17T00:32:15;12.43;;;8.07;;
70122;SDS011;57489;37.404;24.920;2023-08-17T00:37:15;15.43;;;7.87;;
70122;SDS011;57489;37.404;24.920;2023-08-17T00:42:16;13.30;;;9.40;;
70122;SDS011;57489;37.404;24.920;2023-08-17T00:47:16;13.50;;;8.33;;
70122;SDS011;57489;37.404;24.920;2023-08-17T00:52:17;13.37;;;7.73;;
70122;SDS011;57489;37.404;24.920;2023-08-17T00:57:17;12.07;;;8.10;;
70122;SDS011;57489;37.404;24.920;2023-08-17T01:02:18;12.83;;;8.30;;
70122;SDS011;57489;37.404;24.920;2023-08-17T01:07:19;12.98;;;8.07;;
70122;SDS011;57489;37.404;24.920;2023-08-17T01:17:43;14.70;;;9.20;;
70122;SDS011;57489;37.404;24.920;2023-08-17T01:22:48;12.83;;;8.33;;
70122;SDS011;57489;37.404;24.920;2023-08-17T01:27:50;14.13;;;8.20;;
70122;SDS011;57489;37.404;24.920;2023-08-17T01:32:51;11.87;;;7.93;;
70122;SDS011;57489;37.404;24.920;2023-08-17T01:37:59;11.30;;;8.20;;
70122;SDS011;57489;37.404;24.920;2023-08-17T01:43:02;15.03;;;8.30;;
70122;SDS011;57489;37.404;24.920;2023-08-17T01:48:03;12.45;;;8.32;;
70122;SDS011;57489;37.404;24.920;2023-08-17T01:53:04;12.95;;;8.60;;
70122;SDS011;57489;37.404;24.920;2023-08-17T01:58:04;14.50;;;8.70;;
70122;SDS011;57489;37.404;24.920;2023-08-17T02:03:05;11.80;;;7.70;;
70122;SDS011;57489;37.404;24.920;2023-08-17T02:08:05;11.33;;;7.90;;
70122;SDS011;57489;37.404;24.920;2023-08-17T02:13:05;15.50;;;9.20;;
70122;SDS011;57489;37.404;24.920;2023-08-17T02:18:06;15.23;;;8.90;;
70122;SDS011;57489;37.404;24.920;2023-08-17T02:23:06;13.60;;;8.27;;
70122;SDS011;57489;37.404;24.920;2023-08-17T02:28:07;13.73;;;8.10;;
70122;SDS011;57489;37.404;24.920;2023-08-17T02:33:07;12.63;;;8.35;;
70122;SDS011;57489;37.404;24.920;2023-08-17T02:38:08;14.47;;;7.77;;
70122;SDS011;57489;37.404;24.920;2023-08-17T02:43:08;11.63;;;8.07;;
70122;SDS011;57489;37.404;24.920;2023-08-17T02:48:09;13.77;;;8.37;;
70122;SDS011;57489;37.404;24.920;2023-08-17T02:53:09;15.90;;;8.47;;
70122;SDS011;57489;37.404;24.920;2023-08-17T02:58:10;14.73;;;9.17;;
70122;SDS011;57489;37.404;24.920;2023-08-17T03:03:10;16.33;;;7.90;;
70122;SDS011;57489;37.404;24.920;2023-08-17T03:08:11;19.73;;;9.10;;
70122;SDS011;57489;37.404;24.920;2023-08-17T03:13:11;16.40;;;8.93;;
70122;SDS011;57489;37.404;24.920;2023-08-17T03:18:11;17.40;;;8.50;;
70122;SDS011;57489;37.404;24.920;2023-08-17T03:23:12;14.43;;;8.47;;
70122;SDS011;57489;37.404;24.920;2023-08-17T03:28:12;14.53;;;9.37;;
70122;SDS011;57489;37.404;24.920;2023-08-17T03:33:13;18.27;;;9.07;;
70122;SDS011;57489;37.404;24.920;2023-08-17T03:38:13;21.90;;;10.13;;
70122;SDS011;57489;37.404;24.920;2023-08-17T03:43:14;17.23;;;8.40;;
70122;SDS011;57489;37.404;24.920;2023-08-17T03:48:14;18.03;;;9.13;;
70122;SDS011;57489;37.404;24.920;2023-08-17T03:53:15;19.40;;;9.53;;
70122;SDS011;57489;37.404;24.920;2023-08-17T03:58:15;18.10;;;9.27;;
70122;SDS011;57489;37.404;24.920;2023-08-17T04:03:18;21.00;;;9.80;;
70122;SDS011;57489;37.404;24.920;2023-08-17T04:08:19;17.42;;;9.50;;
70122;SDS011;57489;37.404;24.920;2023-08-17T04:13:19;17.87;;;9.60;;
70122;SDS011;57489;37.404;24.920;2023-08-17T04:18:20;16.60;;;8.60;;
70122;SDS011;57489;37.404;24.920;2023-08-17T04:23:20;20.80;;;10.13;;
70122;SDS011;57489;37.404;24.920;2023-08-17T04:28:21;16.63;;;8.50;;
70122;SDS011;57489;37.404;24.920;2023-08-17T04:33:21;15.77;;;9.13;;
70122;SDS011;57489;37.404;24.920;2023-08-17T04:38:22;13.88;;;7.88;;
70122;SDS011;57489;37.404;24.920;2023-08-17T04:43:22;16.40;;;9.77;;
70122;SDS011;57489;37.404;24.920;2023-08-17T04:48:23;15.83;;;9.90;;
70122;SDS011;57489;37.404;24.920;2023-08-17T04:53:23;19.23;;;8.60;;
70122;SDS011;57489;37.404;24.920;2023-08-17T04:58:24;14.68;;;8.20;;
70122;SDS011;57489;37.404;24.920;2023-08-17T05:03:24;16.13;;;7.87;;
70122;SDS011;57489;37.404;24.920;2023-08-17T05:08:25;16.43;;;6.73;;
70122;SDS011;57489;37.404;24.920;2023-08-17T05:13:25;15.20;;;7.07;;
70122;SDS011;57489;37.404;24.920;2023-08-17T05:18:26;19.80;;;7.60;;
70122;SDS011;57489;37.404;24.920;2023-08-17T05:23:26;11.23;;;6.47;;
70122;SDS011;57489;37.404;24.920;2023-08-17T05:28:27;15.83;;;7.13;;
70122;SDS011;57489;37.404;24.920;2023-08-17T05:33:27;18.00;;;7.07;;
70122;SDS011;57489;37.404;24.920;2023-08-17T05:38:27;15.43;;;6.73;;
70122;SDS011;57489;37.404;24.920;2023-08-17T05:43:28;11.87;;;6.47;;
70122;SDS011;57489;37.404;24.920;2023-08-17T05:48:28;15.35;;;6.38;;
70122;SDS011;57489;37.404;24.920;2023-08-17T05:53:29;14.03;;;6.53;;
70122;SDS011;57489;37.404;24.920;2023-08-17T05:58:29;12.70;;;6.77;;
70122;SDS011;57489;37.404;24.920;2023-08-17T06:03:30;14.17;;;7.30;;
70122;SDS011;57489;37.404;24.920;2023-08-17T06:08:30;12.63;;;6.63;;
70122;SDS011;57489;37.404;24.920;2023-08-17T06:13:31;17.13;;;7.57;;
70122;SDS011;57489;37.404;24.920;2023-08-17T06:18:31;11.33;;;6.27;;
70122;SDS011;57489;37.404;24.920;2023-08-17T06:23:32;20.92;;;7.00;;
70122;SDS011;57489;37.404;24.920;2023-08-17T06:28:32;15.73;;;6.43;;
70122;SDS011;57489;37.404;24.920;2023-08-17T06:33:33;13.73;;;6.57;;
70122;SDS011;57489;37.404;24.920;2023-08-17T06:38:33;16.73;;;6.57;;
70122;SDS011;57489;37.404;24.920;2023-08-17T06:43:34;12.97;;;6.53;;
70122;SDS011;57489;37.404;24.920;2023-08-17T06:48:34;18.23;;;7.87;;
70122;SDS011;57489;37.404;24.920;2023-08-17T06:53:34;14.93;;;7.40;;
70122;SDS011;57489;37.404;24.920;2023-08-17T06:58:35;13.03;;;6.87;;
70122;SDS011;57489;37.404;24.920;2023-08-17T07:03:35;14.13;;;7.37;;
70122;SDS011;57489;37.404;24.920;2023-08-17T07:08:36;13.53;;;6.90;;
70122;SDS011;57489;37.404;24.920;2023-08-17T07:13:36;16.53;;;7.90;;
70122;SDS011;57489;37.404;24.920;2023-08-17T07:18:37;13.53;;;7.13;;
70122;SDS011;57489;37.404;24.920;2023-08-17T07:23:37;16.93;;;7.43;;
70122;SDS011;57489;37.404;24.920;2023-08-17T07:28:37;15.20;;;7.63;;
70122;SDS011;57489;37.404;24.920;2023-08-17T07:33:38;14.00;;;7.50;;
70122;SDS011;57489;37.404;24.920;2023-08-17T07:38:39;17.47;;;7.93;;
70122;SDS011;57489;37.404;24.920;2023-08-17T07:43:39;15.77;;;7.03;;
70122;SDS011;57489;37.404;24.920;2023-08-17T07:48:40;12.05;;;7.07;;
70122;SDS011;57489;37.404;24.920;2023-08-17T07:53:40;15.57;;;6.30;;
70122;SDS011;57489;37.404;24.920;2023-08-17T07:58:41;13.20;;;6.20;;
70122;SDS011;57489;37.404;24.920;2023-08-17T08:03:41;15.77;;;6.80;;
70122;SDS011;57489;37.404;24.920;2023-08-17T08:08:42;14.40;;;7.27;;
70122;SDS011;57489;37.404;24.920;2023-08-17T08:13:42;17.27;;;6.73;;
70122;SDS011;57489;37.404;24.920;2023-08-17T08:18:43;14.40;;;6.73;;
70122;SDS011;57489;37.404;24.920;2023-08-17T08:23:43;12.33;;;7.20;;
70122;SDS011;57489;37.404;24.920;2023-08-17T08:28:44;14.73;;;6.50;;
70122;SDS011;57489;37.404;24.920;2023-08-17T08:33:44;15.97;;;6.17;;
70122;SDS011;57489;37.404;24.920;2023-08-17T08:38:44;13.07;;;6.57;;
70122;SDS011;57489;37.404;24.920;2023-08-17T08:43:45;13.27;;;6.43;;
70122;SDS011;57489;37.404;24.920;2023-08-17T08:48:46;13.90;;;7.30;;
70122;SDS011;57489;37.404;24.920;2023-08-17T08:53:50;12.13;;;6.20;;
70122;SDS011;57489;37.404;24.920;2023-08-17T08:59:02;12.38;;;6.50;;
70122;SDS011;57489;37.404;24.920;2023-08-17T09:04:04;12.27;;;6.33;;
70122;SDS011;57489;37.404;24.920;2023-08-17T09:09:05;12.33;;;6.17;;
70122;SDS011;57489;37.404;24.920;2023-08-17T09:14:07;16.08;;;6.97;;
70122;SDS011;57489;37.404;24.920;2023-08-17T09:19:08;12.47;;;6.07;;
70122;SDS011;57489;37.404;24.920;2023-08-17T09:24:09;17.67;;;6.28;;
70122;SDS011;57489;37.404;24.920;2023-08-17T09:29:18;10.87;;;5.90;;
70122;SDS011;57489;37.404;24.920;2023-08-17T09:34:20;12.95;;;5.88;;
70122;SDS011;57489;37.404;24.920;2023-08-17T09:39:20;18.27;;;6.43;;
70122;SDS011;57489;37.404;24.920;2023-08-17T09:44:20;17.37;;;6.63;;
70122;SDS011;57489;37.404;24.920;2023-08-17T09:49:25;13.13;;;6.13;;
70122;SDS011;57489;37.404;24.920;2023-08-17T09:54:25;17.75;;;5.88;;
70122;SDS011;57489;37.404;24.920;2023-08-17T09:59:25;16.23;;;7.97;;
70122;SDS011;57489;37.404;24.920;2023-08-17T10:04:26;13.07;;;5.50;;
70122;SDS011;57489;37.404;24.920;2023-08-17T10:09:31;11.52;;;5.93;;
70122;SDS011;57489;37.404;24.920;2023-08-17T10:14:36;13.13;;;5.40;;
70122;SDS011;57489;37.404;24.920;2023-08-17T10:19:46;16.83;;;6.90;;
70122;SDS011;57489;37.404;24.920;2023-08-17T10:24:50;11.05;;;5.63;;
70122;SDS011;57489;37.404;24.920;2023-08-17T10:29:52;12.32;;;5.43;;
70122;SDS011;57489;37.404;24.920;2023-08-17T10:34:52;10.83;;;5.50;;
70122;SDS011;57489;37.404;24.920;2023-08-17T10:39:53;13.90;;;6.13;;
70122;SDS011;57489;37.404;24.920;2023-08-17T10:44:54;15.53;;;7.10;;
70122;SDS011;57489;37.404;24.920;2023-08-17T10:55:01;18.17;;;5.93;;
70122;SDS011;57489;37.404;24.920;2023-08-17T11:05:14;11.93;;;5.20;;
70122;SDS011;57489;37.404;24.920;2023-08-17T11:15:18;12.18;;;5.45;;
70122;SDS011;57489;37.404;24.920;2023-08-17T11:20:18;16.83;;;5.33;;
70122;SDS011;57489;37.404;24.920;2023-08-17T11:25:19;13.67;;;5.60;;
70122;SDS011;57489;37.404;24.920;2023-08-17T11:30:20;17.97;;;5.57;;
70122;SDS011;57489;37.404;24.920;2023-08-17T11:35:21;11.77;;;5.55;;
70122;SDS011;57489;37.404;24.920;2023-08-17T11:40:22;12.67;;;5.53;;
70122;SDS011;57489;37.404;24.920;2023-08-17T11:45:23;10.68;;;5.10;;
70122;SDS011;57489;37.404;24.920;2023-08-17T11:50:24;10.70;;;4.97;;
70122;SDS011;57489;37.404;24.920;2023-08-17T11:55:25;9.50;;;4.80;;
70122;SDS011;57489;37.404;24.920;2023-08-17T12:00:25;12.37;;;5.40;;
70122;SDS011;57489;37.404;24.920;2023-08-17T12:05:26;12.20;;;4.50;;
70122;SDS011;57489;37.404;24.920;2023-08-17T12:10:30;9.77;;;4.90;;
70122;SDS011;57489;37.404;24.920;2023-08-17T12:15:34;11.20;;;4.78;;
70122;SDS011;57489;37.404;24.920;2023-08-17T12:20:35;12.97;;;5.30;;
70122;SDS011;57489;37.404;24.920;2023-08-17T12:25:35;12.90;;;5.40;;
70122;SDS011;57489;37.404;24.920;2023-08-17T12:30:36;12.70;;;5.90;;
70122;SDS011;57489;37.404;24.920;2023-08-17T12:35:37;12.83;;;6.37;;
70122;SDS011;57489;37.404;24.920;2023-08-17T12:40:38;12.70;;;6.13;;
70122;SDS011;57489;37.404;24.920;2023-08-17T12:45:38;17.73;;;5.53;;
70122;SDS011;57489;37.404;24.920;2023-08-17T12:50:40;12.75;;;5.32;;
70122;SDS011;57489;37.404;24.920;2023-08-17T12:55:40;11.80;;;5.03;;
70122;SDS011;57489;37.404;24.920;2023-08-17T13:00:41;13.13;;;5.20;;
70122;SDS011;57489;37.404;24.920;2023-08-17T13:05:42;13.55;;;4.95;;
70122;SDS011;57489;37.404;24.920;2023-08-17T13:10:43;9.60;;;5.13;;
70122;SDS011;57489;37.404;24.920;2023-08-17T13:15:43;8.97;;;4.80;;
70122;SDS011;57489;37.404;24.920;2023-08-17T13:20:44;13.97;;;5.10;;
70122;SDS011;57489;37.404;24.920;2023-08-17T13:25:44;10.77;;;5.27;;
70122;SDS011;57489;37.404;24.920;2023-08-17T13:30:44;14.13;;;5.60;;
70122;SDS011;57489;37.404;24.920;2023-08-17T13:35:45;13.13;;;4.60;;
70122;SDS011;57489;37.404;24.920;2023-08-17T13:40:45;11.43;;;4.90;;
70122;SDS011;57489;37.404;24.920;2023-08-17T13:45:46;12.33;;;5.20;;
70122;SDS011;57489;37.404;24.920;2023-08-17T13:50:47;10.00;;;4.53;;
70122;SDS011;57489;37.404;24.920;2023-08-17T13:55:47;10.23;;;4.57;;
70122;SDS011;57489;37.404;24.920;2023-08-17T14:00:48;9.57;;;4.70;;
70122;SDS011;57489;37.404;24.920;2023-08-17T14:05:48;8.57;;;4.73;;
70122;SDS011;57489;37.404;24.920;2023-08-17T14:10:49;11.10;;;5.67;;
70122;SDS011;57489;37.404;24.920;2023-08-17T14:15:50;11.02;;;5.47;;
70122;SDS011;57489;37.404;24.920;2023-08-17T14:20:51;8.33;;;3.90;;
70122;SDS011;57489;37.404;24.920;2023-08-17T14:25:51;8.63;;;4.70;;
70122;SDS011;57489;37.404;24.920;2023-08-17T14:30:52;10.50;;;5.07;;
70122;SDS011;57489;37.404;24.920;2023-08-17T14:35:52;8.63;;;4.93;;
70122;SDS011;57489;37.404;24.920;2023-08-17T14:40:53;10.17;;;3.90;;
70122;SDS011;57489;37.404;24.920;2023-08-17T14:45:53;8.73;;;4.70;;
70122;SDS011;57489;37.404;24.920;2023-08-17T14:50:54;9.33;;;4.00;;
70122;SDS011;57489;37.404;24.920;2023-08-17T14:55:54;11.37;;;4.47;;
70122;SDS011;57489;37.404;24.920;2023-08-17T15:00:54;9.80;;;4.93;;
70122;SDS011;57489;37.404;24.920;2023-08-17T15:05:55;9.30;;;4.40;;
70122;SDS011;57489;37.404;24.920;2023-08-17T15:10:55;10.20;;;4.50;;
70122;SDS011;57489;37.404;24.920;2023-08-17T15:15:56;14.13;;;4.40;;
70122;SDS011;57489;37.404;24.920;2023-08-17T15:20:56;9.87;;;4.90;;
70122;SDS011;57489;37.404;24.920;2023-08-17T15:25:57;10.37;;;4.90;;
70122;SDS011;57489;37.404;24.920;2023-08-17T15:31:01;9.50;;;4.70;;
70122;SDS011;57489;37.404;24.920;2023-08-17T15:36:02;10.10;;;5.00;;
70122;SDS011;57489;37.404;24.920;2023-08-17T15:41:03;12.07;;;4.83;;
70122;SDS011;57489;37.404;24.920;2023-08-17T15:46:03;12.37;;;4.83;;
70122;SDS011;57489;37.404;24.920;2023-08-17T15:51:03;11.87;;;6.27;;
70122;SDS011;57489;37.404;24.920;2023-08-17T15:56:04;13.37;;;7.33;;
70122;SDS011;57489;37.404;24.920;2023-08-17T16:01:05;11.87;;;6.47;;
70122;SDS011;57489;37.404;24.920;2023-08-17T16:06:06;10.55;;;6.20;;
70122;SDS011;57489;37.404;24.920;2023-08-17T16:11:07;11.07;;;5.73;;
70122;SDS011;57489;37.404;24.920;2023-08-17T16:16:07;11.17;;;5.13;;
70122;SDS011;57489;37.404;24.920;2023-08-17T16:21:07;9.57;;;5.40;;
70122;SDS011;57489;37.404;24.920;2023-08-17T16:26:08;10.97;;;5.10;;
70122;SDS011;57489;37.404;24.920;2023-08-17T16:31:10;12.83;;;4.90;;
70122;SDS011;57489;37.404;24.920;2023-08-17T16:36:10;10.30;;;5.07;;
70122;SDS011;57489;37.404;24.920;2023-08-17T16:41:11;12.82;;;5.35;;
70122;SDS011;57489;37.404;24.920;2023-08-17T16:46:11;10.93;;;5.43;;
70122;SDS011;57489;37.404;24.920;2023-08-17T16:51:11;14.20;;;5.73;;
70122;SDS011;57489;37.404;24.920;2023-08-17T16:56:12;10.70;;;5.63;;
70122;SDS011;57489;37.404;24.920;2023-08-17T17:01:14;10.60;;;5.83;;
70122;SDS011;57489;37.404;24.920;2023-08-17T17:06:15;10.55;;;4.68;;
70122;SDS011;57489;37.404;24.920;2023-08-17T17:11:16;10.87;;;4.67;;
70122;SDS011;57489;37.404;24.920;2023-08-17T17:16:16;9.97;;;4.90;;
70122;SDS011;57489;37.404;24.920;2023-08-17T17:21:17;11.53;;;5.20;;
70122;SDS011;57489;37.404;24.920;2023-08-17T17:26:17;11.38;;;4.93;;
70122;SDS011;57489;37.404;24.920;2023-08-17T17:31:18;12.90;;;4.93;;
70122;SDS011;57489;37.404;24.920;2023-08-17T17:36:18;11.37;;;5.93;;
70122;SDS011;57489;37.404;24.920;2023-08-17T17:41:19;11.03;;;5.50;;
70122;SDS011;57489;37.404;24.920;2023-08-17T17:46:19;10.07;;;5.10;;
70122;SDS011;57489;37.404;24.920;2023-08-17T17:51:20;11.80;;;5.63;;
70122;SDS011;57489;37.404;24.920;2023-08-17T17:56:35;11.30;;;5.40;;
70122;SDS011;57489;37.404;24.920;2023-08-17T18:01:42;10.68;;;5.22;;
70122;SDS011;57489;37.404;24.920;2023-08-17T18:06:42;12.63;;;5.00;;
70122;SDS011;57489;37.404;24.920;2023-08-17T18:11:43;10.60;;;5.10;;
70122;SDS011;57489;37.404;24.920;2023-08-17T18:16:43;11.93;;;4.93;;
70122;SDS011;57489;37.404;24.920;2023-08-17T18:21:44;11.87;;;5.20;;
70122;SDS011;57489;37.404;24.920;2023-08-17T18:26:44;11.50;;;5.70;;
70122;SDS011;57489;37.404;24.920;2023-08-17T18:31:45;12.77;;;6.87;;
70122;SDS011;57489;37.404;24.920;2023-08-17T18:36:45;16.03;;;7.83;;
70122;SDS011;57489;37.404;24.920;2023-08-17T18:41:46;15.23;;;6.43;;
70122;SDS011;57489;37.404;24.920;2023-08-17T18:46:46;46.90;;;18.70;;
70122;SDS011;57489;37.404;24.920;2023-08-17T18:51:46;11.57;;;6.63;;
70122;SDS011;57489;37.404;24.920;2023-08-17T18:56:47;12.07;;;6.43;;
70122;SDS011;57489;37.404;24.920;2023-08-17T19:01:48;12.43;;;6.35;;
70122;SDS011;57489;37.404;24.920;2023-08-17T19:06:49;14.53;;;7.17;;
70122;SDS011;57489;37.404;24.920;2023-08-17T19:11:49;11.13;;;6.30;;
70122;SDS011;57489;37.404;24.920;2023-08-17T19:16:50;11.88;;;6.57;;
70122;SDS011;57489;37.404;24.920;2023-08-17T19:21:59;9.73;;;5.57;;
70122;SDS011;57489;37.404;24.920;2023-08-17T19:27:03;13.87;;;6.30;;
70122;SDS011;57489;37.404;24.920;2023-08-17T19:32:03;9.93;;;5.63;;
70122;SDS011;57489;37.404;24.920;2023-08-17T19:37:04;12.90;;;5.50;;
70122;SDS011;57489;37.404;24.920;2023-08-17T19:42:05;11.17;;;5.73;;
70122;SDS011;57489;37.404;24.920;2023-08-17T19:47:06;10.82;;;5.22;;
70122;SDS011;57489;37.404;24.920;2023-08-17T19:52:06;9.57;;;4.87;;
70122;SDS011;57489;37.404;24.920;2023-08-17T19:57:06;10.63;;;5.03;;
70122;SDS011;57489;37.404;24.920;2023-08-17T20:02:07;17.47;;;6.30;;
70122;SDS011;57489;37.404;24.920;2023-08-17T20:07:08;12.37;;;5.83;;
70122;SDS011;57489;37.404;24.920;2023-08-17T20:17:56;9.23;;;5.97;;
70122;SDS011;57489;37.404;24.920;2023-08-17T20:22:56;15.10;;;5.90;;
70122;SDS011;57489;37.404;24.920;2023-08-17T20:27:57;11.03;;;5.70;;
70122;SDS011;57489;37.404;24.920;2023-08-17T20:32:57;14.50;;;5.60;;
70122;SDS011;57489;37.404;24.920;2023-08-17T20:37:58;10.43;;;6.60;;
70122;SDS011;57489;37.404;24.920;2023-08-17T20:42:58;10.83;;;5.43;;
70122;SDS011;57489;37.404;24.920;2023-08-17T20:47:59;11.67;;;6.37;;
70122;SDS011;57489;37.404;24.920;2023-08-17T20:52:59;10.60;;;5.60;;
70122;SDS011;57489;37.404;24.920;2023-08-17T20:58:00;11.83;;;5.53;;
70122;SDS011;57489;37.404;24.920;2023-08-17T21:03:00;10.20;;;5.53;;
70122;SDS011;57489;37.404;24.920;2023-08-17T21:08:04;12.45;;;6.03;;
70122;SDS011;57489;37.404;24.920;2023-08-17T21:13:05;11.40;;;6.00;;
70122;SDS011;57489;37.404;24.920;2023-08-17T21:18:05;8.80;;;4.80;;
70122;SDS011;57489;37.404;24.920;2023-08-17T21:23:06;12.47;;;5.90;;
70122;SDS011;57489;37.404;24.920;2023-08-17T21:28:07;9.73;;;5.68;;
70122;SDS011;57489;37.404;24.920;2023-08-17T21:33:07;11.53;;;5.30;;
70122;SDS011;57489;37.404;24.920;2023-08-17T21:38:08;11.20;;;4.70;;
70122;SDS011;57489;37.404;24.920;2023-08-17T21:43:08;8.70;;;4.07;;
70122;SDS011;57489;37.404;24.920;2023-08-17T21:48:09;8.10;;;4.40;;
70122;SDS011;57489;37.404;24.920;2023-08-17T21:53:09;7.70;;;4.27;;
70122;SDS011;57489;37.404;24.920;2023-08-17T21:58:10;9.03;;;4.10;;
70122;SDS011;57489;37.404;24.920;2023-08-17T22:03:11;7.78;;;4.15;;
70122;SDS011;57489;37.404;24.920;2023-08-17T22:08:13;8.67;;;4.07;;
70122;SDS011;57489;37.404;24.920;2023-08-17T22:13:14;7.18;;;3.53;;
70122;SDS011;57489;37.404;24.920;2023-08-17T22:18:15;8.63;;;4.33;;
70122;SDS011;57489;37.404;24.920;2023-08-17T22:23:16;10.13;;;4.70;;
70122;SDS011;57489;37.404;24.920;2023-08-17T22:28:16;10.47;;;4.63;;
70122;SDS011;57489;37.404;24.920;2023-08-17T22:33:17;8.53;;;3.93;;
70122;SDS011;57489;37.404;24.920;2023-08-17T22:38:17;10.40;;;4.13;;
70122;SDS011;57489;37.404;24.920;2023-08-17T22:43:18;7.30;;;4.00;;
70122;SDS011;57489;37.404;24.920;2023-08-17T22:48:18;10.33;;;5.10;;
70122;SDS011;57489;37.404;24.920;2023-08-17T22:53:19;10.18;;;5.22;;
70122;SDS011;57489;37.404;24.920;2023-08-17T22:58:19;9.77;;;5.10;;
70122;SDS011;57489;37.404;24.920;2023-08-17T23:03:19;17.43;;;5.00;;
70122;SDS011;57489;37.404;24.920;2023-08-17T23:08:20;8.90;;;4.77;;
70122;SDS011;57489;37.404;24.920;2023-08-17T23:13:20;7.60;;;5.27;;
70122;SDS011;57489;37.404;24.920;2023-08-17T23:18:21;8.80;;;4.47;;
70122;SDS011;57489;37.404;24.920;2023-08-17T23:23:21;10.97;;;5.10;;
70122;SDS011;57489;37.404;24.920;2023-08-17T23:28:22;10.83;;;5.17;;
70122;SDS011;57489;37.404;24.920;2023-08-17T23:33:22;12.53;;;5.00;;
70122;SDS011;57489;37.404;24.920;2023-08-17T23:38:23;12.00;;;4.60;;
70122;SDS011;57489;37.404;24.920;2023-08-17T23:43:23;10.32;;;5.15;;
70122;SDS011;57489;37.404;24.920;2023-08-17T23:48:23;8.90;;;4.83;;
70122;SDS011;57489;37.404;24.920;2023-08-17T23:53:24;9.57;;;4.73;;
70122;SDS011;57489;37.404;24.920;2023-08-17T23:58:24;8.57;;;4.80;;
